sensor_id;sensor_type;location;lat;lon;timestamp;P1;durP1;ratioP1;P2;durP2;ratioP2
23730;SDS011;12046;44.702;10.622;2022-10-31T00:01:54;16.90;;;8.13;;
23730;SDS011;12046;44.702;10.622;2022-10-31T00:04:40;16.45;;;7.25;;
23730;SDS011;12046;44.702;10.622;2022-10-31T00:07:07;15.52;;;6.95;;
23730;SDS011;12046;44.702;10.622;2022-10-31T00:09:33;13.68;;;7.43;;
23730;SDS011;12046;44.702;10.622;2022-10-31T00:11:59;13.30;;;6.93;;
23730;SDS011;12046;44.702;10.622;2022-10-31T00:14:25;10.38;;;6.55;;
23730;SDS011;12046;44.702;10.622;2022-10-31T00:16:51;13.30;;;7.47;;
23730;SDS011;12046;44.702;10.622;2022-10-31T00:19:17;12.07;;;6.55;;
23730;SDS011;12046;44.702;10.622;2022-10-31T00:21:43;14.13;;;7.38;;
23730;SDS011;12046;44.702;10.622;2022-10-31T00:24:10;10.70;;;6.80;;
23730;SDS011;12046;44.702;10.622;2022-10-31T00:26:36;14.25;;;6.88;;
23730;SDS011;12046;44.702;10.622;2022-10-31T00:29:02;13.27;;;7.70;;
23730;SDS011;12046;44.702;10.622;2022-10-31T00:31:29;10.18;;;5.82;;
23730;SDS011;12046;44.702;10.622;2022-10-31T00:33:55;10.90;;;6.78;;
23730;SDS011;12046;44.702;10.622;2022-10-31T00:36:22;11.18;;;7.00;;
23730;SDS011;12046;44.702;10.622;2022-10-31T00:38:48;12.73;;;6.05;;
23730;SDS011;12046;44.702;10.622;2022-10-31T00:41:15;13.05;;;6.45;;
23730;SDS011;12046;44.702;10.622;2022-10-31T00:43:42;15.90;;;6.47;;
23730;SDS011;12046;44.702;10.622;2022-10-31T00:46:09;12.15;;;6.10;;
23730;SDS011;12046;44.702;10.622;2022-10-31T00:48:36;12.88;;;5.80;;
23730;SDS011;12046;44.702;10.622;2022-10-31T00:51:02;10.98;;;6.18;;
23730;SDS011;12046;44.702;10.622;2022-10-31T00:53:29;12.50;;;6.68;;
23730;SDS011;12046;44.702;10.622;2022-10-31T00:55:55;10.82;;;7.03;;
23730;SDS011;12046;44.702;10.622;2022-10-31T00:58:22;12.38;;;6.55;;
23730;SDS011;12046;44.702;10.622;2022-10-31T01:00:48;9.95;;;5.80;;
23730;SDS011;12046;44.702;10.622;2022-10-31T01:03:23;10.68;;;5.88;;
23730;SDS011;12046;44.702;10.622;2022-10-31T01:05:58;9.02;;;6.32;;
23730;SDS011;12046;44.702;10.622;2022-10-31T01:08:24;12.70;;;6.07;;
23730;SDS011;12046;44.702;10.622;2022-10-31T01:13:37;13.13;;;6.20;;
23730;SDS011;12046;44.702;10.622;2022-10-31T01:16:04;13.77;;;6.40;;
23730;SDS011;12046;44.702;10.622;2022-10-31T01:18:32;10.40;;;6.35;;
23730;SDS011;12046;44.702;10.622;2022-10-31T01:21:00;14.52;;;5.90;;
23730;SDS011;12046;44.702;10.622;2022-10-31T01:23:29;11.05;;;6.65;;
23730;SDS011;12046;44.702;10.622;2022-10-31T01:26:16;11.32;;;6.43;;
23730;SDS011;12046;44.702;10.622;2022-10-31T01:28:45;12.73;;;6.13;;
23730;SDS011;12046;44.702;10.622;2022-10-31T01:31:30;10.50;;;6.40;;
23730;SDS011;12046;44.702;10.622;2022-10-31T01:34:00;11.13;;;6.15;;
23730;SDS011;12046;44.702;10.622;2022-10-31T01:36:28;10.02;;;5.88;;
23730;SDS011;12046;44.702;10.622;2022-10-31T01:38:57;13.60;;;6.45;;
23730;SDS011;12046;44.702;10.622;2022-10-31T01:41:29;10.52;;;6.20;;
23730;SDS011;12046;44.702;10.622;2022-10-31T01:44:01;14.13;;;6.28;;
23730;SDS011;12046;44.702;10.622;2022-10-31T01:52:05;10.32;;;5.80;;
23730;SDS011;12046;44.702;10.622;2022-10-31T01:54:38;13.82;;;6.55;;
23730;SDS011;12046;44.702;10.622;2022-10-31T01:57:08;10.38;;;6.32;;
23730;SDS011;12046;44.702;10.622;2022-10-31T01:59:39;11.57;;;5.88;;
23730;SDS011;12046;44.702;10.622;2022-10-31T02:02:10;10.45;;;5.75;;
23730;SDS011;12046;44.702;10.622;2022-10-31T02:04:37;8.75;;;5.63;;
23730;SDS011;12046;44.702;10.622;2022-10-31T02:07:26;14.18;;;6.00;;
23730;SDS011;12046;44.702;10.622;2022-10-31T02:09:51;13.57;;;6.30;;
23730;SDS011;12046;44.702;10.622;2022-10-31T02:12:19;10.98;;;5.80;;
23730;SDS011;12046;44.702;10.622;2022-10-31T02:14:45;12.15;;;6.25;;
23730;SDS011;12046;44.702;10.622;2022-10-31T02:17:12;10.98;;;5.90;;
23730;SDS011;12046;44.702;10.622;2022-10-31T02:28:53;11.18;;;6.35;;
23730;SDS011;12046;44.702;10.622;2022-10-31T02:34:34;10.38;;;6.00;;
23730;SDS011;12046;44.702;10.622;2022-10-31T02:37:18;13.02;;;5.15;;
23730;SDS011;12046;44.702;10.622;2022-10-31T02:42:44;11.80;;;5.85;;
23730;SDS011;12046;44.702;10.622;2022-10-31T02:48:09;10.80;;;5.30;;
23730;SDS011;12046;44.702;10.622;2022-10-31T02:50:39;11.52;;;7.28;;
23730;SDS011;12046;44.702;10.622;2022-10-31T02:53:08;10.95;;;6.22;;
23730;SDS011;12046;44.702;10.622;2022-10-31T03:00:37;10.77;;;6.13;;
23730;SDS011;12046;44.702;10.622;2022-10-31T03:03:24;8.83;;;5.23;;
23730;SDS011;12046;44.702;10.622;2022-10-31T03:11:15;8.98;;;5.88;;
23730;SDS011;12046;44.702;10.622;2022-10-31T03:19:05;15.20;;;6.05;;
23730;SDS011;12046;44.702;10.622;2022-10-31T03:21:44;9.07;;;5.70;;
23730;SDS011;12046;44.702;10.622;2022-10-31T03:24:14;13.77;;;5.85;;
23730;SDS011;12046;44.702;10.622;2022-10-31T03:26:42;14.35;;;6.47;;
23730;SDS011;12046;44.702;10.622;2022-10-31T03:29:19;11.32;;;6.28;;
23730;SDS011;12046;44.702;10.622;2022-10-31T03:31:57;11.70;;;6.60;;
23730;SDS011;12046;44.702;10.622;2022-10-31T03:34:27;11.75;;;6.47;;
23730;SDS011;12046;44.702;10.622;2022-10-31T03:36:56;9.77;;;6.10;;
23730;SDS011;12046;44.702;10.622;2022-10-31T03:39:25;13.85;;;6.68;;
23730;SDS011;12046;44.702;10.622;2022-10-31T03:42:05;12.30;;;6.55;;
23730;SDS011;12046;44.702;10.622;2022-10-31T03:44:35;10.68;;;6.47;;
23730;SDS011;12046;44.702;10.622;2022-10-31T03:47:04;8.70;;;5.70;;
23730;SDS011;12046;44.702;10.622;2022-10-31T03:49:30;11.73;;;6.13;;
23730;SDS011;12046;44.702;10.622;2022-10-31T03:54:58;13.18;;;6.47;;
23730;SDS011;12046;44.702;10.622;2022-10-31T03:57:34;11.70;;;6.13;;
23730;SDS011;12046;44.702;10.622;2022-10-31T04:00:08;13.65;;;5.95;;
23730;SDS011;12046;44.702;10.622;2022-10-31T04:02:38;11.55;;;6.85;;
23730;SDS011;12046;44.702;10.622;2022-10-31T04:05:08;11.55;;;7.05;;
23730;SDS011;12046;44.702;10.622;2022-10-31T04:07:41;13.65;;;6.75;;
23730;SDS011;12046;44.702;10.622;2022-10-31T04:10:11;11.60;;;6.45;;
23730;SDS011;12046;44.702;10.622;2022-10-31T04:12:39;11.00;;;5.53;;
23730;SDS011;12046;44.702;10.622;2022-10-31T04:15:08;10.13;;;5.88;;
23730;SDS011;12046;44.702;10.622;2022-10-31T04:17:36;11.88;;;5.80;;
23730;SDS011;12046;44.702;10.622;2022-10-31T04:20:06;11.25;;;6.28;;
23730;SDS011;12046;44.702;10.622;2022-10-31T04:22:32;11.52;;;6.13;;
23730;SDS011;12046;44.702;10.622;2022-10-31T04:24:58;16.92;;;6.10;;
23730;SDS011;12046;44.702;10.622;2022-10-31T04:27:24;11.77;;;5.60;;
23730;SDS011;12046;44.702;10.622;2022-10-31T04:29:50;9.43;;;5.90;;
23730;SDS011;12046;44.702;10.622;2022-10-31T04:32:16;11.60;;;5.93;;
23730;SDS011;12046;44.702;10.622;2022-10-31T04:34:41;9.38;;;5.25;;
23730;SDS011;12046;44.702;10.622;2022-10-31T04:37:07;12.00;;;6.70;;
23730;SDS011;12046;44.702;10.622;2022-10-31T04:39:33;11.90;;;5.93;;
23730;SDS011;12046;44.702;10.622;2022-10-31T04:41:59;12.15;;;5.65;;
23730;SDS011;12046;44.702;10.622;2022-10-31T04:44:25;8.55;;;5.88;;
23730;SDS011;12046;44.702;10.622;2022-10-31T04:46:51;13.95;;;6.63;;
23730;SDS011;12046;44.702;10.622;2022-10-31T04:49:17;8.98;;;5.88;;
23730;SDS011;12046;44.702;10.622;2022-10-31T04:51:43;12.00;;;6.25;;
23730;SDS011;12046;44.702;10.622;2022-10-31T04:54:09;11.68;;;6.35;;
23730;SDS011;12046;44.702;10.622;2022-10-31T04:56:35;9.77;;;5.68;;
23730;SDS011;12046;44.702;10.622;2022-10-31T04:59:00;11.57;;;5.57;;
23730;SDS011;12046;44.702;10.622;2022-10-31T05:01:26;11.27;;;5.57;;
23730;SDS011;12046;44.702;10.622;2022-10-31T05:03:53;11.55;;;6.35;;
23730;SDS011;12046;44.702;10.622;2022-10-31T05:06:19;13.18;;;6.25;;
23730;SDS011;12046;44.702;10.622;2022-10-31T05:08:44;12.85;;;5.93;;
23730;SDS011;12046;44.702;10.622;2022-10-31T05:11:10;11.05;;;6.97;;
23730;SDS011;12046;44.702;10.622;2022-10-31T05:13:36;10.38;;;6.25;;
23730;SDS011;12046;44.702;10.622;2022-10-31T05:16:03;11.02;;;6.25;;
23730;SDS011;12046;44.702;10.622;2022-10-31T05:18:29;11.50;;;6.70;;
23730;SDS011;12046;44.702;10.622;2022-10-31T05:20:55;11.25;;;6.60;;
23730;SDS011;12046;44.702;10.622;2022-10-31T05:23:21;11.82;;;6.32;;
23730;SDS011;12046;44.702;10.622;2022-10-31T05:25:47;11.77;;;6.75;;
23730;SDS011;12046;44.702;10.622;2022-10-31T05:28:13;15.07;;;6.75;;
23730;SDS011;12046;44.702;10.622;2022-10-31T05:30:39;14.93;;;7.15;;
23730;SDS011;12046;44.702;10.622;2022-10-31T05:33:05;14.65;;;6.97;;
23730;SDS011;12046;44.702;10.622;2022-10-31T05:35:31;12.07;;;6.88;;
23730;SDS011;12046;44.702;10.622;2022-10-31T05:37:58;13.15;;;6.60;;
23730;SDS011;12046;44.702;10.622;2022-10-31T05:40:25;11.25;;;6.82;;
23730;SDS011;12046;44.702;10.622;2022-10-31T05:42:52;12.45;;;6.90;;
23730;SDS011;12046;44.702;10.622;2022-10-31T05:45:19;11.73;;;6.53;;
23730;SDS011;12046;44.702;10.622;2022-10-31T05:47:50;13.38;;;6.93;;
23730;SDS011;12046;44.702;10.622;2022-10-31T05:50:16;16.83;;;6.35;;
23730;SDS011;12046;44.702;10.622;2022-10-31T05:52:43;15.30;;;6.82;;
23730;SDS011;12046;44.702;10.622;2022-10-31T05:55:09;18.67;;;6.32;;
23730;SDS011;12046;44.702;10.622;2022-10-31T05:57:35;14.48;;;6.93;;
23730;SDS011;12046;44.702;10.622;2022-10-31T06:00:01;17.88;;;7.22;;
23730;SDS011;12046;44.702;10.622;2022-10-31T06:02:27;12.48;;;7.07;;
23730;SDS011;12046;44.702;10.622;2022-10-31T06:04:56;10.68;;;6.22;;
23730;SDS011;12046;44.702;10.622;2022-10-31T06:07:22;18.08;;;6.68;;
23730;SDS011;12046;44.702;10.622;2022-10-31T06:09:48;12.30;;;6.68;;
23730;SDS011;12046;44.702;10.622;2022-10-31T06:12:14;14.43;;;5.97;;
23730;SDS011;12046;44.702;10.622;2022-10-31T06:14:40;13.85;;;7.18;;
23730;SDS011;12046;44.702;10.622;2022-10-31T06:17:06;18.10;;;6.68;;
23730;SDS011;12046;44.702;10.622;2022-10-31T06:19:32;10.93;;;7.15;;
23730;SDS011;12046;44.702;10.622;2022-10-31T06:21:58;15.32;;;7.25;;
23730;SDS011;12046;44.702;10.622;2022-10-31T06:24:23;10.90;;;6.32;;
23730;SDS011;12046;44.702;10.622;2022-10-31T06:26:49;19.25;;;7.18;;
23730;SDS011;12046;44.702;10.622;2022-10-31T06:29:16;14.95;;;6.60;;
23730;SDS011;12046;44.702;10.622;2022-10-31T06:31:42;11.57;;;6.78;;
23730;SDS011;12046;44.702;10.622;2022-10-31T06:34:07;13.13;;;6.88;;
23730;SDS011;12046;44.702;10.622;2022-10-31T06:36:33;11.68;;;5.93;;
23730;SDS011;12046;44.702;10.622;2022-10-31T06:39:00;9.38;;;5.18;;
23730;SDS011;12046;44.702;10.622;2022-10-31T06:41:26;9.25;;;5.32;;
23730;SDS011;12046;44.702;10.622;2022-10-31T06:43:52;10.60;;;5.72;;
23730;SDS011;12046;44.702;10.622;2022-10-31T06:46:18;10.93;;;5.75;;
23730;SDS011;12046;44.702;10.622;2022-10-31T06:48:44;12.80;;;5.50;;
23730;SDS011;12046;44.702;10.622;2022-10-31T06:51:09;12.70;;;5.78;;
23730;SDS011;12046;44.702;10.622;2022-10-31T06:53:35;11.00;;;5.53;;
23730;SDS011;12046;44.702;10.622;2022-10-31T06:56:01;9.32;;;4.95;;
23730;SDS011;12046;44.702;10.622;2022-10-31T06:58:27;7.95;;;5.18;;
23730;SDS011;12046;44.702;10.622;2022-10-31T07:00:53;10.43;;;5.18;;
23730;SDS011;12046;44.702;10.622;2022-10-31T07:03:19;8.43;;;5.60;;
23730;SDS011;12046;44.702;10.622;2022-10-31T07:05:45;10.38;;;5.40;;
23730;SDS011;12046;44.702;10.622;2022-10-31T07:08:12;8.82;;;5.00;;
23730;SDS011;12046;44.702;10.622;2022-10-31T07:10:39;10.35;;;5.60;;
23730;SDS011;12046;44.702;10.622;2022-10-31T07:13:10;10.25;;;5.30;;
23730;SDS011;12046;44.702;10.622;2022-10-31T07:15:38;11.88;;;5.57;;
23730;SDS011;12046;44.702;10.622;2022-10-31T07:18:06;10.75;;;5.95;;
23730;SDS011;12046;44.702;10.622;2022-10-31T07:20:33;11.30;;;6.05;;
23730;SDS011;12046;44.702;10.622;2022-10-31T07:23:00;8.40;;;5.30;;
23730;SDS011;12046;44.702;10.622;2022-10-31T07:25:26;13.07;;;5.57;;
23730;SDS011;12046;44.702;10.622;2022-10-31T07:27:52;10.32;;;5.93;;
23730;SDS011;12046;44.702;10.622;2022-10-31T07:30:18;13.82;;;5.90;;
23730;SDS011;12046;44.702;10.622;2022-10-31T07:32:45;10.40;;;5.38;;
23730;SDS011;12046;44.702;10.622;2022-10-31T07:35:13;10.25;;;5.85;;
23730;SDS011;12046;44.702;10.622;2022-10-31T07:37:41;12.57;;;5.55;;
23730;SDS011;12046;44.702;10.622;2022-10-31T07:40:07;10.82;;;5.13;;
23730;SDS011;12046;44.702;10.622;2022-10-31T07:42:37;8.90;;;4.78;;
23730;SDS011;12046;44.702;10.622;2022-10-31T07:45:05;9.05;;;4.65;;
23730;SDS011;12046;44.702;10.622;2022-10-31T07:50:09;8.23;;;4.90;;
23730;SDS011;12046;44.702;10.622;2022-10-31T07:52:36;10.18;;;4.95;;
23730;SDS011;12046;44.702;10.622;2022-10-31T07:55:03;8.68;;;4.90;;
23730;SDS011;12046;44.702;10.622;2022-10-31T07:57:36;8.70;;;4.60;;
23730;SDS011;12046;44.702;10.622;2022-10-31T08:00:09;10.43;;;4.57;;
23730;SDS011;12046;44.702;10.622;2022-10-31T08:02:35;12.00;;;4.80;;
23730;SDS011;12046;44.702;10.622;2022-10-31T08:05:01;9.02;;;4.75;;
23730;SDS011;12046;44.702;10.622;2022-10-31T08:07:27;9.23;;;4.38;;
23730;SDS011;12046;44.702;10.622;2022-10-31T08:09:54;11.23;;;4.22;;
23730;SDS011;12046;44.702;10.622;2022-10-31T08:12:21;11.73;;;3.83;;
23730;SDS011;12046;44.702;10.622;2022-10-31T08:14:47;7.07;;;3.75;;
23730;SDS011;12046;44.702;10.622;2022-10-31T08:17:13;7.65;;;3.13;;
23730;SDS011;12046;44.702;10.622;2022-10-31T08:19:39;7.78;;;2.83;;
23730;SDS011;12046;44.702;10.622;2022-10-31T08:22:05;6.55;;;3.55;;
23730;SDS011;12046;44.702;10.622;2022-10-31T08:24:31;9.15;;;4.18;;
23730;SDS011;12046;44.702;10.622;2022-10-31T08:26:57;6.70;;;3.55;;
23730;SDS011;12046;44.702;10.622;2022-10-31T08:29:23;9.07;;;3.70;;
23730;SDS011;12046;44.702;10.622;2022-10-31T08:31:49;6.78;;;3.42;;
23730;SDS011;12046;44.702;10.622;2022-10-31T08:34:15;9.10;;;3.28;;
23730;SDS011;12046;44.702;10.622;2022-10-31T08:36:41;7.03;;;3.97;;
23730;SDS011;12046;44.702;10.622;2022-10-31T08:39:10;7.15;;;4.00;;
23730;SDS011;12046;44.702;10.622;2022-10-31T08:41:35;8.70;;;3.95;;
23730;SDS011;12046;44.702;10.622;2022-10-31T08:44:02;8.85;;;4.20;;
23730;SDS011;12046;44.702;10.622;2022-10-31T08:46:27;11.75;;;5.53;;
23730;SDS011;12046;44.702;10.622;2022-10-31T08:48:54;11.30;;;4.80;;
23730;SDS011;12046;44.702;10.622;2022-10-31T08:51:20;9.93;;;5.00;;
23730;SDS011;12046;44.702;10.622;2022-10-31T08:53:45;11.43;;;4.90;;
23730;SDS011;12046;44.702;10.622;2022-10-31T08:56:11;13.20;;;6.03;;
23730;SDS011;12046;44.702;10.622;2022-10-31T08:58:37;11.05;;;5.85;;
23730;SDS011;12046;44.702;10.622;2022-10-31T09:01:03;9.82;;;5.63;;
23730;SDS011;12046;44.702;10.622;2022-10-31T09:03:29;14.15;;;5.78;;
23730;SDS011;12046;44.702;10.622;2022-10-31T09:05:58;13.52;;;5.72;;
23730;SDS011;12046;44.702;10.622;2022-10-31T09:08:26;15.45;;;5.88;;
23730;SDS011;12046;44.702;10.622;2022-10-31T09:10:57;13.73;;;5.70;;
23730;SDS011;12046;44.702;10.622;2022-10-31T09:13:24;12.38;;;7.00;;
23730;SDS011;12046;44.702;10.622;2022-10-31T09:15:53;18.30;;;6.78;;
23730;SDS011;12046;44.702;10.622;2022-10-31T09:18:24;10.38;;;6.72;;
23730;SDS011;12046;44.702;10.622;2022-10-31T09:20:56;10.80;;;7.25;;
23730;SDS011;12046;44.702;10.622;2022-10-31T09:36:56;17.63;;;8.80;;
23730;SDS011;12046;44.702;10.622;2022-10-31T09:39:42;15.23;;;8.35;;
23730;SDS011;12046;44.702;10.622;2022-10-31T09:42:18;18.33;;;9.48;;
23730;SDS011;12046;44.702;10.622;2022-10-31T09:50:14;20.85;;;8.82;;
23730;SDS011;12046;44.702;10.622;2022-10-31T09:53:01;20.80;;;9.88;;
23730;SDS011;12046;44.702;10.622;2022-10-31T09:55:38;14.93;;;9.18;;
23730;SDS011;12046;44.702;10.622;2022-10-31T09:58:13;18.50;;;9.40;;
23730;SDS011;12046;44.702;10.622;2022-10-31T10:00:50;17.30;;;8.60;;
23730;SDS011;12046;44.702;10.622;2022-10-31T10:08:48;16.83;;;7.85;;
23730;SDS011;12046;44.702;10.622;2022-10-31T10:13:52;19.88;;;8.13;;
23730;SDS011;12046;44.702;10.622;2022-10-31T10:16:26;15.05;;;7.60;;
23730;SDS011;12046;44.702;10.622;2022-10-31T10:21:39;13.88;;;7.80;;
23730;SDS011;12046;44.702;10.622;2022-10-31T10:30:35;16.88;;;8.77;;
23730;SDS011;12046;44.702;10.622;2022-10-31T10:33:07;16.27;;;8.60;;
23730;SDS011;12046;44.702;10.622;2022-10-31T10:35:45;15.75;;;9.35;;
23730;SDS011;12046;44.702;10.622;2022-10-31T10:41:18;17.50;;;8.73;;
23730;SDS011;12046;44.702;10.622;2022-10-31T10:43:48;17.02;;;9.50;;
23730;SDS011;12046;44.702;10.622;2022-10-31T11:00:25;14.90;;;9.45;;
23730;SDS011;12046;44.702;10.622;2022-10-31T11:02:54;14.35;;;9.82;;
23730;SDS011;12046;44.702;10.622;2022-10-31T11:08:00;19.95;;;10.70;;
23730;SDS011;12046;44.702;10.622;2022-10-31T11:10:27;20.27;;;9.52;;
23730;SDS011;12046;44.702;10.622;2022-10-31T11:13:36;19.10;;;10.55;;
23730;SDS011;12046;44.702;10.622;2022-10-31T11:15:57;17.00;;;10.40;;
23730;SDS011;12046;44.702;10.622;2022-10-31T11:18:26;16.70;;;9.13;;
23730;SDS011;12046;44.702;10.622;2022-10-31T11:20:56;14.43;;;9.48;;
23730;SDS011;12046;44.702;10.622;2022-10-31T11:23:25;17.17;;;9.98;;
23730;SDS011;12046;44.702;10.622;2022-10-31T11:26:00;16.65;;;9.88;;
23730;SDS011;12046;44.702;10.622;2022-10-31T11:28:29;13.50;;;9.05;;
23730;SDS011;12046;44.702;10.622;2022-10-31T11:31:11;17.08;;;10.35;;
23730;SDS011;12046;44.702;10.622;2022-10-31T11:33:40;18.58;;;10.52;;
23730;SDS011;12046;44.702;10.622;2022-10-31T11:36:21;18.02;;;10.27;;
23730;SDS011;12046;44.702;10.622;2022-10-31T11:38:49;21.40;;;9.35;;
23730;SDS011;12046;44.702;10.622;2022-10-31T11:41:17;14.82;;;9.27;;
23730;SDS011;12046;44.702;10.622;2022-10-31T11:43:50;16.17;;;9.95;;
23730;SDS011;12046;44.702;10.622;2022-10-31T11:46:28;14.88;;;9.52;;
23730;SDS011;12046;44.702;10.622;2022-10-31T11:49:01;20.27;;;10.43;;
23730;SDS011;12046;44.702;10.622;2022-10-31T11:51:32;16.25;;;10.10;;
23730;SDS011;12046;44.702;10.622;2022-10-31T11:56:40;20.10;;;9.43;;
23730;SDS011;12046;44.702;10.622;2022-10-31T12:01:54;22.75;;;9.60;;
23730;SDS011;12046;44.702;10.622;2022-10-31T12:07:23;17.20;;;10.23;;
23730;SDS011;12046;44.702;10.622;2022-10-31T12:09:50;17.23;;;9.45;;
23730;SDS011;12046;44.702;10.622;2022-10-31T12:23:01;18.42;;;9.38;;
23730;SDS011;12046;44.702;10.622;2022-10-31T12:28:28;16.67;;;9.30;;
23730;SDS011;12046;44.702;10.622;2022-10-31T12:31:29;16.60;;;9.55;;
23730;SDS011;12046;44.702;10.622;2022-10-31T12:52:35;19.25;;;10.35;;
23730;SDS011;12046;44.702;10.622;2022-10-31T12:58:20;16.92;;;9.82;;
23730;SDS011;12046;44.702;10.622;2022-10-31T13:00:48;21.17;;;10.45;;
23730;SDS011;12046;44.702;10.622;2022-10-31T13:03:28;22.17;;;11.25;;
23730;SDS011;12046;44.702;10.622;2022-10-31T13:06:02;21.38;;;10.68;;
23730;SDS011;12046;44.702;10.622;2022-10-31T13:08:41;19.38;;;10.82;;
23730;SDS011;12046;44.702;10.622;2022-10-31T13:11:16;19.02;;;10.02;;
23730;SDS011;12046;44.702;10.622;2022-10-31T13:16:29;25.80;;;10.30;;
23730;SDS011;12046;44.702;10.622;2022-10-31T13:19:11;22.38;;;9.80;;
23730;SDS011;12046;44.702;10.622;2022-10-31T13:27:59;19.92;;;9.63;;
23730;SDS011;12046;44.702;10.622;2022-10-31T13:30:36;24.35;;;10.30;;
23730;SDS011;12046;44.702;10.622;2022-10-31T13:33:07;21.80;;;10.23;;
23730;SDS011;12046;44.702;10.622;2022-10-31T13:44:26;17.33;;;9.32;;
23730;SDS011;12046;44.702;10.622;2022-10-31T13:46:54;17.63;;;9.00;;
23730;SDS011;12046;44.702;10.622;2022-10-31T13:52:04;21.08;;;11.18;;
23730;SDS011;12046;44.702;10.622;2022-10-31T13:54:32;19.95;;;10.85;;
23730;SDS011;12046;44.702;10.622;2022-10-31T13:56:59;22.98;;;10.25;;
23730;SDS011;12046;44.702;10.622;2022-10-31T13:59:25;21.27;;;10.85;;
23730;SDS011;12046;44.702;10.622;2022-10-31T14:01:58;22.63;;;10.30;;
23730;SDS011;12046;44.702;10.622;2022-10-31T14:04:36;22.67;;;9.90;;
23730;SDS011;12046;44.702;10.622;2022-10-31T14:07:23;18.02;;;9.85;;
23730;SDS011;12046;44.702;10.622;2022-10-31T14:10:00;24.33;;;11.00;;
23730;SDS011;12046;44.702;10.622;2022-10-31T14:12:43;18.58;;;9.98;;
23730;SDS011;12046;44.702;10.622;2022-10-31T14:17:52;22.25;;;11.15;;
23730;SDS011;12046;44.702;10.622;2022-10-31T14:20:42;24.73;;;10.77;;
23730;SDS011;12046;44.702;10.622;2022-10-31T14:28:46;25.80;;;13.02;;
23730;SDS011;12046;44.702;10.622;2022-10-31T14:31:30;21.10;;;11.32;;
23730;SDS011;12046;44.702;10.622;2022-10-31T14:34:02;28.48;;;11.30;;
23730;SDS011;12046;44.702;10.622;2022-10-31T14:36:40;21.02;;;11.65;;
23730;SDS011;12046;44.702;10.622;2022-10-31T14:42:51;26.95;;;11.70;;
23730;SDS011;12046;44.702;10.622;2022-10-31T14:47:57;18.85;;;10.23;;
23730;SDS011;12046;44.702;10.622;2022-10-31T14:50:54;20.30;;;9.77;;
23730;SDS011;12046;44.702;10.622;2022-10-31T14:55:56;20.50;;;10.02;;
23730;SDS011;12046;44.702;10.622;2022-10-31T14:58:33;23.88;;;10.82;;
23730;SDS011;12046;44.702;10.622;2022-10-31T15:01:04;21.80;;;10.65;;
23730;SDS011;12046;44.702;10.622;2022-10-31T15:03:33;19.50;;;10.68;;
23730;SDS011;12046;44.702;10.622;2022-10-31T15:06:14;25.23;;;11.77;;
23730;SDS011;12046;44.702;10.622;2022-10-31T15:08:47;23.73;;;11.07;;
23730;SDS011;12046;44.702;10.622;2022-10-31T15:11:18;21.02;;;9.85;;
23730;SDS011;12046;44.702;10.622;2022-10-31T15:13:50;17.80;;;10.63;;
23730;SDS011;12046;44.702;10.622;2022-10-31T15:16:20;16.40;;;9.95;;
23730;SDS011;12046;44.702;10.622;2022-10-31T15:19:02;15.38;;;9.25;;
23730;SDS011;12046;44.702;10.622;2022-10-31T15:21:31;20.10;;;10.05;;
23730;SDS011;12046;44.702;10.622;2022-10-31T15:23:58;25.65;;;9.38;;
23730;SDS011;12046;44.702;10.622;2022-10-31T15:26:33;17.20;;;9.43;;
23730;SDS011;12046;44.702;10.622;2022-10-31T15:29:12;20.27;;;8.90;;
23730;SDS011;12046;44.702;10.622;2022-10-31T15:31:48;19.50;;;8.45;;
23730;SDS011;12046;44.702;10.622;2022-10-31T15:36:54;19.60;;;9.13;;
23730;SDS011;12046;44.702;10.622;2022-10-31T15:39:20;16.60;;;8.73;;
23730;SDS011;12046;44.702;10.622;2022-10-31T15:41:58;23.75;;;9.80;;
23730;SDS011;12046;44.702;10.622;2022-10-31T15:44:28;21.15;;;8.60;;
23730;SDS011;12046;44.702;10.622;2022-10-31T15:47:00;25.67;;;9.05;;
23730;SDS011;12046;44.702;10.622;2022-10-31T15:52:03;25.08;;;10.80;;
23730;SDS011;12046;44.702;10.622;2022-10-31T15:54:40;21.30;;;9.55;;
23730;SDS011;12046;44.702;10.622;2022-10-31T15:57:13;23.95;;;11.02;;
23730;SDS011;12046;44.702;10.622;2022-10-31T15:59:40;22.92;;;9.18;;
23730;SDS011;12046;44.702;10.622;2022-10-31T16:02:11;18.63;;;8.68;;
23730;SDS011;12046;44.702;10.622;2022-10-31T16:04:47;19.02;;;8.95;;
23730;SDS011;12046;44.702;10.622;2022-10-31T16:07:20;28.17;;;9.80;;
23730;SDS011;12046;44.702;10.622;2022-10-31T16:09:50;28.70;;;9.55;;
23730;SDS011;12046;44.702;10.622;2022-10-31T16:12:34;20.98;;;10.07;;
23730;SDS011;12046;44.702;10.622;2022-10-31T16:15:03;17.73;;;9.68;;
23730;SDS011;12046;44.702;10.622;2022-10-31T16:17:30;32.58;;;11.43;;
23730;SDS011;12046;44.702;10.622;2022-10-31T16:19:58;23.92;;;10.50;;
23730;SDS011;12046;44.702;10.622;2022-10-31T16:22:32;29.98;;;11.23;;
23730;SDS011;12046;44.702;10.622;2022-10-31T16:25:13;21.35;;;9.82;;
23730;SDS011;12046;44.702;10.622;2022-10-31T16:27:52;22.85;;;10.50;;
23730;SDS011;12046;44.702;10.622;2022-10-31T16:30:38;24.95;;;10.88;;
23730;SDS011;12046;44.702;10.622;2022-10-31T16:39:03;18.27;;;9.63;;
23730;SDS011;12046;44.702;10.622;2022-10-31T16:41:30;23.30;;;9.30;;
23730;SDS011;12046;44.702;10.622;2022-10-31T16:43:59;19.40;;;9.32;;
23730;SDS011;12046;44.702;10.622;2022-10-31T16:46:27;21.35;;;10.27;;
23730;SDS011;12046;44.702;10.622;2022-10-31T16:48:55;34.50;;;12.00;;
23730;SDS011;12046;44.702;10.622;2022-10-31T16:51:21;33.20;;;12.45;;
23730;SDS011;12046;44.702;10.622;2022-10-31T16:53:47;29.33;;;11.93;;
23730;SDS011;12046;44.702;10.622;2022-10-31T16:56:17;21.02;;;10.27;;
23730;SDS011;12046;44.702;10.622;2022-10-31T16:58:48;21.33;;;10.30;;
23730;SDS011;12046;44.702;10.622;2022-10-31T17:01:14;20.00;;;9.80;;
23730;SDS011;12046;44.702;10.622;2022-10-31T17:03:41;22.83;;;9.88;;
23730;SDS011;12046;44.702;10.622;2022-10-31T17:06:10;21.40;;;10.43;;
23730;SDS011;12046;44.702;10.622;2022-10-31T17:08:37;24.15;;;11.45;;
23730;SDS011;12046;44.702;10.622;2022-10-31T17:11:03;22.73;;;11.32;;
23730;SDS011;12046;44.702;10.622;2022-10-31T17:13:30;27.90;;;11.40;;
23730;SDS011;12046;44.702;10.622;2022-10-31T17:16:00;17.35;;;10.88;;
23730;SDS011;12046;44.702;10.622;2022-10-31T17:18:27;24.88;;;11.18;;
23730;SDS011;12046;44.702;10.622;2022-10-31T17:20:54;18.77;;;10.93;;
23730;SDS011;12046;44.702;10.622;2022-10-31T17:23:25;25.02;;;10.07;;
23730;SDS011;12046;44.702;10.622;2022-10-31T17:25:53;21.40;;;11.90;;
23730;SDS011;12046;44.702;10.622;2022-10-31T17:28:19;22.45;;;12.23;;
23730;SDS011;12046;44.702;10.622;2022-10-31T17:30:46;17.38;;;11.23;;
23730;SDS011;12046;44.702;10.622;2022-10-31T17:33:12;29.73;;;15.13;;
23730;SDS011;12046;44.702;10.622;2022-10-31T17:35:40;34.60;;;15.75;;
23730;SDS011;12046;44.702;10.622;2022-10-31T17:38:07;27.70;;;13.80;;
23730;SDS011;12046;44.702;10.622;2022-10-31T17:40:33;26.48;;;12.68;;
23730;SDS011;12046;44.702;10.622;2022-10-31T17:43:02;23.92;;;13.85;;
23730;SDS011;12046;44.702;10.622;2022-10-31T17:45:28;26.88;;;13.82;;
23730;SDS011;12046;44.702;10.622;2022-10-31T17:47:54;26.73;;;13.18;;
23730;SDS011;12046;44.702;10.622;2022-10-31T17:50:21;26.58;;;14.00;;
23730;SDS011;12046;44.702;10.622;2022-10-31T17:52:49;24.10;;;12.88;;